CST,Max TemperatureF,Mean TemperatureF,Min TemperatureF,Max Dew PointF,MeanDew PointF,Min DewpointF,Max Humidity, Mean Humidity, Min Humidity, Max Sea Level PressureIn, Mean Sea Level PressureIn, Min Sea Level PressureIn, Max VisibilityMiles, Mean VisibilityMiles, Min VisibilityMiles, Max Wind SpeedMPH, Mean Wind SpeedMPH, Max Gust SpeedMPH,PrecipitationIn, CloudCover, Events, WindDirDegrees
2012-12-1,39,36,33,36,34,28,100,91,81,30.13,29.85,29.75,10,3,0,8,3,,0.00,8,Fog,208
2012-12-2,37,32,28,36,32,27,100,93,83,30.02,29.92,29.84,6,3,0,7,3,,0.00,5,Fog,236
2012-12-3,55,44,32,52,43,31,96,85,67,29.86,29.63,29.47,10,8,2,22,9,32,0.00,5,Rain,218
2012-12-4,39,27,15,30,14,9,78,62,51,30.42,30.13,29.76,10,10,10,18,14,29,0.00,1,,279
2012-12-5,36,26,15,18,15,12,88,64,46,30.47,30.29,29.92,10,10,10,12,5,21,0.00,5,,207
2012-12-6,44,35,26,35,26,19,79,66,46,29.96,29.83,29.72,10,10,10,18,13,26,0.00,6,,246
2012-12-7,30,27,24,20,18,17,78,70,61,30.10,30.05,29.98,10,10,10,9,6,,0.00,7,,284
2012-12-8,30,24,19,22,18,16,92,78,64,30.17,30.11,30.06,10,10,10,8,3,,0.00,6,,25
2012-12-9,32,28,23,28,24,18,100,84,69,30.18,30.02,29.87,10,5,0,18,5,26,0.00,8,Fog-Snow,45
2012-12-10,28,22,17,27,20,14,93,86,80,29.91,29.87,29.84,10,4,0,17,10,23,0.00,8,Fog-Snow,285
2012-12-11,18,15,12,14,10,6,92,79,68,30.06,29.87,29.77,10,8,2,14,7,18,0.00,7,Snow,231
2012-12-12,37,22,7,27,14,4,89,79,65,30.12,30.01,29.93,10,10,7,8,3,,0.00,6,,194
2012-12-13,37,30,24,28,26,19,93,84,64,30.20,30.03,29.95,10,6,0,7,4,,0.00,8,Fog-Snow,318
2012-12-14,28,22,17,22,20,17,100,87,78,30.22,30.13,30.00,10,8,0,6,2,,0.00,3,Fog,64
2012-12-15,37,31,25,36,32,22,100,91,79,29.97,29.68,29.53,10,5,0,6,4,,0.16,7,Fog-Rain,66
2012-12-16,37,31,25,34,30,20,96,90,80,29.74,29.61,29.52,10,6,0,13,4,84,0.04,8,Fog-Snow,269
2012-12-17,26,25,24,20,19,17,84,78,71,29.78,29.76,29.73,10,10,10,14,8,17,0.00,8,,242
2012-12-18,28,22,14,20,18,12,92,81,69,29.86,29.77,29.71,10,10,8,6,1,,0.00,7,,220
2012-12-19,33,22,12,25,21,10,96,85,70,30.05,29.97,29.86,10,8,4,10,4,,0.00,6,,198
2012-12-20,28,26,21,27,24,16,93,86,74,30.01,29.87,29.77,10,3,1,18,8,29,0.07,8,Snow,348
2012-12-21,26,19,12,14,10,5,81,72,58,30.24,30.16,29.96,10,10,10,21,11,28,0.00,2,,305
2012-12-22,30,16,3,15,9,0,87,71,47,30.20,30.08,29.95,10,10,10,13,7,,0.00,3,,256
2012-12-23,21,16,10,12,9,6,87,74,55,30.18,30.12,30.05,10,10,4,8,5,,0.00,4,Snow,285
2012-12-24,16,11,6,10,6,3,85,74,61,30.30,30.14,30.07,10,10,9,10,5,,0.00,6,,284
2012-12-25,12,5,-2,4,0,-6,88,80,67,30.53,30.44,30.24,10,10,7,7,5,,0.00,5,,232
2012-12-26,17,8,0,7,0,-5,88,82,62,30.46,30.39,30.32,10,10,10,7,4,,0.00,3,,225
2012-12-27,23,12,1,18,10,-2,93,82,68,30.35,30.28,30.18,10,9,2,5,2,,0.00,8,Snow,237
2012-12-28,24,19,14,18,15,10,93,87,71,30.22,30.12,30.00,10,7,2,7,1,,0.00,8,Snow,321
2012-12-29,23,16,10,16,12,7,92,81,68,30.14,30.05,29.99,10,9,4,12,5,,0.00,8,Snow,244
2012-12-30,24,14,5,13,8,1,87,70,57,30.21,30.08,29.90,10,9,3,13,7,,0.00,3,Snow,225
2012-12-31,19,10,0,14,3,-4,83,70,59,30.27,30.12,29.85,10,10,10,15,8,22,0.00,5,,281